Time;durP1;ratioP1;P1;durP2;ratioP2;P2;SDS_P1;SDS_P2;PMS_P1;PMS_P2;Temp;Humidity;BMP_temperature;BMP_pressure;BME280_temperature;BME280_humidity;BME280_pressure;Samples;Min_cycle;Max_cycle;Signal;HPM_P1;HPM_P2
2022/04/08 00:01:36;;;;;;;16.02;10.85;;;;;;;6.49;66.87;98600.21;1769049;81;21214;-82
2022/04/08 00:04:41;;;;;;;14.93;9.55;;;;;;;6.46;67.20;98595.19;1769412;81;21189;-82
2022/04/08 00:07:47;;;;;;;17.10;9.03;;;;;;;6.41;67.45;98590.33;1769708;81;21253;-83
2022/04/08 00:10:53;;;;;;;25.50;10.82;;;;;;;6.35;67.49;98600.09;1768286;81;21190;-82
2022/04/08 00:14:00;;;;;;;17.05;9.40;;;;;;;6.30;67.94;98594.36;1769311;81;21190;-82
2022/04/08 00:17:07;;;;;;;18.65;10.88;;;;;;;6.24;68.24;98588.34;1768163;81;21186;-82
2022/04/08 00:20:13;;;;;;;15.70;10.35;;;;;;;6.20;68.60;98584.84;1767986;80;21198;-82
2022/04/08 00:23:19;;;;;;;18.32;10.25;;;;;;;6.14;68.93;98581.85;1769620;81;21665;-82
2022/04/08 00:26:26;;;;;;;22.17;11.73;;;;;;;6.12;69.76;98576.30;1768402;81;21158;-81
2022/04/08 00:29:33;;;;;;;19.17;11.73;;;;;;;6.15;70.43;98574.55;1770013;81;21209;-81
2022/04/08 00:32:38;;;;;;;20.17;10.95;;;;;;;6.21;70.75;98568.37;1768962;81;21194;-81
2022/04/08 00:35:45;;;;;;;23.47;11.70;;;;;;;6.26;71.29;98578.15;1769033;81;21217;-82
2022/04/08 00:38:53;;;;;;;22.17;12.33;;;;;;;6.34;71.66;98573.94;1769651;81;21181;-82
2022/04/08 00:42:01;;;;;;;23.55;11.93;;;;;;;6.40;71.74;98570.48;1768370;81;21255;-81
2022/04/08 00:45:06;;;;;;;23.55;12.43;;;;;;;6.45;71.82;98564.98;1769508;81;21186;-81
2022/04/08 00:48:12;;;;;;;24.25;13.10;;;;;;;6.47;72.19;98574.61;1768736;81;21217;-81
2022/04/08 00:51:17;;;;;;;22.27;12.23;;;;;;;6.48;72.44;98567.30;1769682;81;21323;-82
2022/04/08 00:54:22;;;;;;;32.88;13.62;;;;;;;6.48;72.39;98575.45;1768257;81;21171;-82
2022/04/08 00:57:28;;;;;;;20.70;12.68;;;;;;;6.46;72.81;98575.66;1768168;81;21717;-82
2022/04/08 01:00:34;;;;;;;21.00;12.65;;;;;;;6.43;73.22;98567.04;1769547;81;21209;-82
2022/04/08 01:03:39;;;;;;;24.02;13.15;;;;;;;6.42;74.01;98563.48;1768624;81;21245;-82
2022/04/08 01:06:46;;;;;;;21.45;13.45;;;;;;;6.40;74.59;98559.61;1768282;81;21186;-82
2022/04/08 01:09:52;;;;;;;22.42;13.22;;;;;;;6.39;74.92;98553.83;1768209;80;21240;-82
2022/04/08 01:12:57;;;;;;;24.52;13.68;;;;;;;6.38;75.28;98554.88;1761291;81;21190;-82
2022/04/08 01:16:05;;;;;;;21.70;13.22;;;;;;;6.37;75.57;98553.20;1768152;81;21795;-82
2022/04/08 01:19:11;;;;;;;31.73;13.00;;;;;;;6.35;75.84;98549.84;1769470;81;21741;-81
2022/04/08 01:22:17;;;;;;;25.17;13.90;;;;;;;6.34;75.93;98548.66;1768068;81;21847;-82
2022/04/08 01:25:24;;;;;;;26.93;13.70;;;;;;;6.29;76.19;98545.68;1769602;81;21241;-82
2022/04/08 01:28:25;;;;;;;22.30;12.50;;;;;;;6.25;76.46;98547.93;1769470;81;21795;-82
2022/04/08 01:31:17;;;;;;;20.60;12.37;;;;;;;6.21;76.77;98543.94;1769745;81;21183;-81
2022/04/08 01:34:22;;;;;;;24.37;13.62;;;;;;;6.18;77.10;98542.12;1768254;81;21265;-81
2022/04/08 01:37:29;;;;;;;24.47;14.20;;;;;;;6.14;77.45;98537.58;1768054;81;21210;-81
2022/04/08 01:40:36;;;;;;;23.85;15.25;;;;;;;6.10;77.79;98528.13;1767863;80;21252;-80
2022/04/08 01:43:45;;;;;;;25.55;14.20;;;;;;;6.06;78.19;98519.52;1769373;81;21724;-82
2022/04/08 01:46:51;;;;;;;28.80;13.83;;;;;;;6.02;78.48;98518.25;1768577;81;21194;-82
2022/04/08 01:49:57;;;;;;;27.90;15.25;;;;;;;5.93;78.72;98518.03;1767980;81;21213;-82
2022/04/08 01:53:04;;;;;;;25.82;13.50;;;;;;;5.86;79.03;98521.13;1769364;81;21174;-81
2022/04/08 01:55:56;;;;;;;24.15;15.15;;;;;;;5.81;79.40;98518.98;1769413;81;21186;-81
2022/04/08 01:59:03;;;;;;;28.27;16.27;;;;;;;5.75;80.39;98504.83;1769772;81;21193;-81
2022/04/08 02:02:09;;;;;;;26.45;15.75;;;;;;;5.74;81.53;98514.50;1769315;81;21217;-81
2022/04/08 02:05:16;;;;;;;26.35;15.78;;;;;;;5.74;82.36;98504.52;1768356;81;21332;-81
2022/04/08 02:08:22;;;;;;;32.85;18.73;;;;;;;5.75;83.05;98500.77;1768942;80;21153;-81
2022/04/08 02:11:28;;;;;;;26.37;16.62;;;;;;;5.77;83.56;98490.55;1767956;81;21224;-83
2022/04/08 02:14:34;;;;;;;29.72;17.37;;;;;;;5.78;83.76;98487.31;1768186;81;21206;-81
2022/04/08 02:17:41;;;;;;;24.82;14.65;;;;;;;5.74;84.05;98484.66;1768092;81;21272;-81
2022/04/08 02:20:47;;;;;;;25.25;15.28;;;;;;;5.69;84.13;98477.08;1772523;80;21213;-81
2022/04/08 02:23:53;;;;;;;30.75;16.77;;;;;;;5.63;84.28;98475.14;1783144;80;21166;-81
2022/04/08 02:26:58;;;;;;;25.82;17.35;;;;;;;5.57;84.54;98477.27;1782720;80;21188;-81
2022/04/08 02:30:04;;;;;;;25.12;15.45;;;;;;;5.52;84.69;98476.47;1783161;80;21177;-80
2022/04/08 02:33:10;;;;;;;27.60;15.60;;;;;;;5.47;84.97;98474.00;1784387;80;21744;-81
2022/04/08 02:36:16;;;;;;;26.65;17.17;;;;;;;5.42;85.29;98466.95;1784200;80;21196;-81
2022/04/08 02:39:22;;;;;;;31.55;16.62;;;;;;;5.36;85.73;98461.73;1783174;80;21197;-81
2022/04/08 02:42:31;;;;;;;30.57;18.87;;;;;;;5.29;86.29;98457.59;1782804;80;21315;-81
2022/04/08 02:45:37;;;;;;;29.98;18.62;;;;;;;5.28;86.61;98464.57;1782796;80;21224;-81
2022/04/08 02:48:45;;;;;;;28.50;17.12;;;;;;;5.24;86.91;98455.13;1783148;80;21188;-81
2022/04/08 02:51:50;;;;;;;34.92;16.32;;;;;;;5.22;87.21;98460.74;1783273;80;21248;-81
2022/04/08 02:54:56;;;;;;;25.37;16.73;;;;;;;5.16;87.49;98454.69;1783436;80;21780;-82
2022/04/08 02:58:02;;;;;;;27.45;16.02;;;;;;;5.13;87.81;98451.02;1782227;80;21529;-81
2022/04/08 03:01:08;;;;;;;24.45;15.15;;;;;;;5.09;88.48;98452.42;1781753;80;21524;-81
2022/04/08 03:04:14;;;;;;;31.73;16.32;;;;;;;5.05;89.20;98453.81;1783198;80;21173;-81
2022/04/08 03:07:20;;;;;;;25.43;14.28;;;;;;;5.03;89.73;98454.50;1782155;80;21491;-81
2022/04/08 03:10:26;;;;;;;23.55;15.40;;;;;;;5.02;89.98;98450.11;1781821;80;21184;-82
2022/04/08 03:13:33;;;;;;;25.68;15.95;;;;;;;5.02;90.53;98450.11;1781709;80;21224;-81
2022/04/08 03:16:39;;;;;;;26.17;15.80;;;;;;;5.03;91.43;98453.14;1783005;80;21225;-81
2022/04/08 03:19:38;;;;;;;25.45;17.07;;;;;;;5.06;92.35;98444.66;1781334;80;21275;-81
2022/04/08 03:22:37;;;;;;;30.23;15.88;;;;;;;5.11;92.60;98443.58;1774320;80;21225;-81
2022/04/08 03:25:43;;;;;;;23.35;15.68;;;;;;;5.15;92.76;98440.83;1769134;81;21253;-81
2022/04/08 03:28:49;;;;;;;27.17;16.25;;;;;;;5.22;93.08;98445.84;1767974;81;21257;-81
2022/04/08 03:31:56;;;;;;;21.10;15.00;;;;;;;5.28;93.08;98442.37;1767963;80;21250;-81
2022/04/08 03:35:02;;;;;;;29.63;17.32;;;;;;;5.36;92.99;98434.62;1769163;81;21226;-81
2022/04/08 03:38:08;;;;;;;25.10;16.52;;;;;;;5.44;93.02;98435.05;1767724;81;21276;-81
2022/04/08 03:41:13;;;;;;;22.37;15.35;;;;;;;5.53;92.89;98436.63;1768523;81;21780;-81
2022/04/08 03:44:18;;;;;;;26.50;15.65;;;;;;;5.59;92.77;98431.80;1769411;81;21186;-81
2022/04/08 03:47:26;;;;;;;20.85;14.38;;;;;;;5.66;92.62;98440.86;1769558;81;21181;-81
2022/04/08 03:50:35;;;;;;;21.15;14.73;;;;;;;5.71;92.46;98442.48;1769232;81;21237;-81
2022/04/08 03:53:40;;;;;;;25.40;15.72;;;;;;;5.77;92.41;98443.07;1769108;81;21162;-81
2022/04/08 03:56:46;;;;;;;21.35;14.15;;;;;;;5.82;92.38;98444.69;1740071;82;21177;-81
2022/04/08 03:59:53;;;;;;;22.48;15.30;;;;;;;5.87;92.32;98443.59;1752138;81;21194;-81
2022/04/08 04:02:58;;;;;;;20.60;14.75;;;;;;;5.95;92.26;98445.40;1770186;81;21194;-82
2022/04/08 04:06:07;;;;;;;30.70;16.82;;;;;;;6.04;92.12;98451.55;1768786;81;21270;-82
2022/04/08 04:09:13;;;;;;;22.37;15.88;;;;;;;6.12;91.96;98449.56;1768759;81;21199;-83
2022/04/08 04:12:18;;;;;;;22.87;15.40;;;;;;;6.20;91.81;98451.28;1770213;81;21836;-83
2022/04/08 04:15:25;;;;;;;24.63;16.12;;;;;;;6.28;91.66;98441.66;1768776;81;21226;-83
2022/04/08 04:18:32;;;;;;;27.05;15.60;;;;;;;6.37;91.56;98441.86;1738378;82;21232;-83
2022/04/08 04:21:38;;;;;;;33.10;15.60;;;;;;;6.46;91.32;98433.58;1739796;82;21211;-81
2022/04/08 04:24:44;;;;;;;21.20;14.47;;;;;;;6.55;91.04;98438.68;1751182;82;21818;-81
2022/04/08 04:27:51;;;;;;;54.38;19.15;;;;;;;6.67;90.77;98443.05;1753637;82;21164;-81
2022/04/08 04:30:59;;;;;;;25.68;15.50;;;;;;;6.77;90.40;98446.25;1753646;82;21330;-81
2022/04/08 04:34:04;;;;;;;26.82;15.88;;;;;;;6.86;90.16;98445.06;1753325;82;21773;-81
2022/04/08 04:37:12;;;;;;;29.37;15.58;;;;;;;6.97;89.82;98449.66;1762832;80;21183;-81
2022/04/08 04:40:18;;;;;;;23.85;16.02;;;;;;;7.08;89.54;98445.02;1747485;82;21196;-81
2022/04/08 04:43:24;;;;;;;20.68;15.50;;;;;;;7.18;89.16;98454.49;1760194;80;21165;-81
2022/04/08 04:46:30;;;;;;;27.90;15.90;;;;;;;7.28;88.84;98451.41;1784109;80;21288;-81
2022/04/08 04:49:36;;;;;;;23.32;15.65;;;;;;;7.38;88.82;98446.44;1783883;80;21193;-81
2022/04/08 04:52:42;;;;;;;29.72;17.30;;;;;;;7.49;88.21;98443.69;1763299;80;21184;-83
2022/04/08 04:55:48;;;;;;;27.37;17.25;;;;;;;7.59;87.76;98448.77;1755557;80;21173;-80
2022/04/08 04:58:56;;;;;;;26.05;15.05;;;;;;;7.72;87.83;98439.30;1784431;80;21261;-82
2022/04/08 05:02:03;;;;;;;27.32;16.73;;;;;;;7.86;87.39;98445.11;1783929;80;21193;-82
2022/04/08 05:05:09;;;;;;;33.10;16.55;;;;;;;7.99;86.61;98445.65;1782534;80;21189;-81
2022/04/08 05:08:16;;;;;;;25.12;15.70;;;;;;;8.13;86.30;98440.55;1751710;82;21277;-82
2022/04/08 05:11:21;;;;;;;28.25;15.72;;;;;;;8.25;85.83;98442.16;1753109;82;21177;-81
2022/04/08 05:14:27;;;;;;;28.83;14.35;;;;;;;8.33;84.96;98432.44;1751879;81;21255;-82
2022/04/08 05:17:38;;;;;;;29.70;16.50;;;;;;;8.38;84.32;98427.23;1774220;80;21168;-82
2022/04/08 05:20:41;;;;;;;23.15;15.93;;;;;;;8.46;84.11;98438.44;1761012;80;21186;-82
2022/04/08 05:23:47;;;;;;;22.85;16.10;;;;;;;8.60;84.34;98431.11;1783962;80;21220;-81
2022/04/08 05:26:56;;;;;;;26.00;15.28;;;;;;;8.81;83.28;98430.91;1770955;81;21783;-82
2022/04/08 05:30:03;;;;;;;25.52;15.28;;;;;;;8.91;82.00;98425.87;1768386;81;21177;-81
2022/04/08 05:33:10;;;;;;;27.95;15.15;;;;;;;9.00;81.77;98430.58;1760352;81;21157;-81
2022/04/08 05:36:16;;;;;;;27.30;15.55;;;;;;;9.06;80.99;98428.89;1751213;81;21736;-81
2022/04/08 05:39:22;;;;;;;25.62;15.03;;;;;;;9.07;80.89;98426.47;1740240;82;21817;-80
2022/04/08 05:42:29;;;;;;;24.43;14.55;;;;;;;9.16;81.04;98422.47;1739895;82;21240;-81
2022/04/08 05:45:35;;;;;;;29.52;14.98;;;;;;;9.25;80.50;98412.17;1740493;82;21197;-81
2022/04/08 05:48:35;;;;;;;29.15;15.30;;;;;;;9.32;80.64;98416.56;1769328;81;21182;-81
2022/04/08 05:51:27;;;;;;;23.18;14.38;;;;;;;9.45;80.35;98419.23;1770049;81;21209;-81
2022/04/08 05:54:35;;;;;;;25.62;14.80;;;;;;;9.61;79.98;98418.47;1770520;80;21194;-81
2022/04/08 05:57:46;;;;;;;24.18;15.65;;;;;;;9.78;79.55;98427.81;1764179;81;21162;-81
2022/04/08 06:00:51;;;;;;;25.82;14.90;;;;;;;9.98;78.53;98420.92;1745699;81;21754;-81
2022/04/08 06:03:58;;;;;;;19.12;13.68;;;;;;;10.29;78.07;98412.45;1751735;81;21162;-82
2022/04/08 06:07:04;;;;;;;27.73;16.10;;;;;;;10.49;76.51;98411.77;1746939;81;21754;-82
2022/04/08 06:10:11;;;;;;;30.95;16.02;;;;;;;10.60;75.19;98410.23;1769436;80;21222;-82
2022/04/08 06:13:17;;;;;;;31.45;18.05;;;;;;;10.68;75.52;98412.17;1734101;81;21200;-82
2022/04/08 06:16:25;;;;;;;31.60;15.98;;;;;;;10.84;75.06;98414.86;1760796;80;21173;-82
2022/04/08 06:19:32;;;;;;;41.65;19.45;;;;;;;10.97;73.67;98405.70;1752703;81;21173;-82
2022/04/08 06:22:40;;;;;;;38.30;19.65;;;;;;;11.00;72.64;98407.97;1733677;82;21276;-83
2022/04/08 06:25:48;;;;;;;38.40;19.75;;;;;;;10.97;72.62;98407.91;1738360;82;21602;-83
2022/04/08 06:28:48;;;;;;;37.67;19.23;;;;;;;10.98;73.57;98401.37;1783267;80;21779;-82
2022/04/08 06:31:55;;;;;;;30.45;16.57;;;;;;;11.02;73.68;98403.66;1783044;80;21205;-81
2022/04/08 06:35:02;;;;;;;30.23;15.68;;;;;;;11.05;73.09;98408.66;1783734;80;21181;-83
2022/04/08 06:38:14;;;;;;;29.60;15.53;;;;;;;11.10;72.92;98408.82;1775623;80;21609;-82
2022/04/08 06:41:20;;;;;;;29.95;17.60;;;;;;;11.17;72.42;98410.44;1766576;80;21736;-83
2022/04/08 06:44:19;;;;;;;27.25;14.38;;;;;;;11.38;73.08;98419.27;1783338;80;21203;-83
2022/04/08 06:47:12;;;;;;;25.43;14.33;;;;;;;11.72;73.38;98410.98;1760005;80;21217;-83
2022/04/08 06:50:19;;;;;;;27.07;13.18;;;;;;;11.99;71.34;98419.17;1784731;80;21178;-82
2022/04/08 06:53:26;;;;;;;19.25;11.63;;;;;;;12.16;70.24;98423.48;1784515;80;21247;-82
2022/04/08 06:56:32;;;;;;;31.12;12.30;;;;;;;12.33;69.25;98430.53;1784966;80;21549;-83
2022/04/08 06:59:38;;;;;;;18.30;11.63;;;;;;;12.47;68.24;98427.89;1782765;80;21610;-83
2022/04/08 07:02:44;;;;;;;19.57;9.40;;;;;;;12.64;68.43;98424.46;1782619;80;21373;-83
2022/04/08 07:05:53;;;;;;;16.93;8.20;;;;;;;12.86;68.28;98422.00;1767644;80;21882;-82
2022/04/08 07:09:01;;;;;;;13.85;7.92;;;;;;;13.08;67.73;98420.86;1753241;80;21141;-84
2022/04/08 07:12:07;;;;;;;19.73;9.45;;;;;;;13.27;67.06;98419.73;1784604;80;21173;-81
2022/04/08 07:15:15;;;;;;;15.53;8.65;;;;;;;13.36;65.58;98418.29;1784024;80;21589;-82
2022/04/08 07:18:21;;;;;;;28.83;9.50;;;;;;;13.48;66.20;98423.75;1783984;80;21184;-82
2022/04/08 07:21:27;;;;;;;14.00;8.63;;;;;;;13.63;64.48;98421.88;1783383;80;21220;-83
2022/04/08 07:24:32;;;;;;;24.52;6.67;;;;;;;13.82;66.42;98413.77;1781092;80;21193;-83
2022/04/08 07:27:38;;;;;;;15.75;7.28;;;;;;;14.17;64.96;98412.83;1763813;80;21536;-83
2022/04/08 07:30:48;;;;;;;18.45;6.40;;;;;;;14.38;63.73;98420.91;1769115;81;21741;-84
2022/04/08 07:33:52;;;;;;;10.20;4.90;;;;;;;14.51;63.01;98414.59;1770466;81;21185;-83
2022/04/08 07:36:57;;;;;;;14.65;5.50;;;;;;;14.62;62.70;98417.52;1769837;81;21253;-83
2022/04/08 07:40:04;;;;;;;14.30;4.30;;;;;;;14.68;61.43;98432.51;1738790;81;21405;-84
2022/04/08 07:43:10;;;;;;;7.60;3.85;;;;;;;14.65;61.83;98429.41;1757018;81;21142;-83
2022/04/08 07:46:18;;;;;;;10.48;5.05;;;;;;;14.60;62.28;98434.83;1769321;81;21732;-84
2022/04/08 07:49:25;;;;;;;13.43;5.28;;;;;;;14.47;61.79;98439.52;1769479;81;21795;-83
2022/04/08 07:52:31;;;;;;;14.58;5.75;;;;;;;14.31;62.14;98440.32;1769875;81;21197;-83
2022/04/08 07:55:37;;;;;;;13.95;4.67;;;;;;;14.24;62.85;98441.83;1770269;81;21203;-84
2022/04/08 07:58:45;;;;;;;12.53;5.10;;;;;;;14.35;64.31;98438.75;1771051;81;21175;-84
2022/04/08 08:01:51;;;;;;;15.03;5.50;;;;;;;14.52;63.88;98439.63;1731442;83;21224;-83
2022/04/08 08:06:00;;;;;;;16.77;5.12;;;;;;;14.69;63.19;98438.30;1754845;81;21200;-83
2022/04/08 08:09:03;;;;;;;10.95;5.00;;;;;;;14.82;63.09;98445.41;1749147;81;21252;-83
2022/04/08 08:12:38;;;;;;;15.58;4.45;;;;;;;14.86;61.88;98437.47;1769052;80;21185;-83
2022/04/08 08:16:07;;;;;;;7.80;3.73;;;;;;;14.76;61.74;98438.13;1770164;81;21194;-83
2022/04/08 08:19:21;;;;;;;18.40;4.72;;;;;;;14.74;62.39;98440.30;1769921;81;21438;-84
2022/04/08 08:22:44;;;;;;;10.23;3.80;;;;;;;14.82;62.63;98433.03;1759502;81;21228;-81
2022/04/08 08:26:18;;;;;;;14.23;5.55;;;;;;;15.01;62.96;98434.98;1762906;81;21186;-81
2022/04/08 08:29:48;;;;;;;15.72;5.40;;;;;;;15.19;62.36;98435.25;1755176;80;21240;-81
2022/04/08 08:33:11;;;;;;;11.15;5.53;;;;;;;15.33;61.01;98430.52;1767568;80;21169;-81
2022/04/08 08:36:29;;;;;;;12.93;5.92;;;;;;;15.46;61.63;98432.63;1740546;82;21274;-82
2022/04/08 08:39:46;;;;;;;10.03;4.35;;;;;;;15.54;60.29;98430.28;1741902;82;21169;-82
2022/04/08 08:43:03;;;;;;;10.55;5.10;;;;;;;15.60;59.90;98429.25;1764959;80;21173;-81
2022/04/08 08:46:10;;;;;;;14.13;5.45;;;;;;;15.66;60.01;98427.42;1779531;80;21181;-82
2022/04/08 08:49:14;;;;;;;15.13;4.85;;;;;;;15.69;59.07;98427.47;1779360;80;21165;-82
2022/04/08 08:52:11;;;;;;;14.80;4.87;;;;;;;15.52;58.71;98428.30;1767679;80;21695;-81
2022/04/08 08:55:20;;;;;;;10.32;4.72;;;;;;;15.29;58.79;98429.89;1732022;80;21175;-82
2022/04/08 08:58:29;;;;;;;14.38;5.35;;;;;;;15.06;59.95;98427.64;1777468;80;21199;-82
2022/04/08 09:01:46;;;;;;;13.03;5.90;;;;;;;14.94;60.17;98427.42;1748560;80;21227;-83
2022/04/08 09:05:07;;;;;;;15.83;5.62;;;;;;;14.86;60.29;98422.33;1749528;80;21146;-82
2022/04/08 09:08:20;;;;;;;13.58;5.03;;;;;;;14.86;60.48;98423.16;1775044;80;21161;-82
2022/04/08 09:11:38;;;;;;;9.85;4.62;;;;;;;14.87;61.22;98422.09;1778499;80;21168;-82
2022/04/08 09:15:09;;;;;;;11.93;5.35;;;;;;;14.98;61.12;98419.79;1754929;80;21189;-83
2022/04/08 09:18:41;;;;;;;;;;;;;;;;;;;;;
2022/04/08 09:22:16;;;;;;;9.88;3.50;;;;;;;15.25;60.60;98422.70;1766879;80;21187;-83
2022/04/08 09:25:30;;;;;;;11.57;3.62;;;;;;;15.57;61.47;98417.90;1773855;80;21769;-82
2022/04/08 09:28:32;;;;;;;14.93;4.00;;;;;;;15.97;58.38;98414.88;1769553;80;21234;-82
2022/04/08 09:31:51;;;;;;;14.55;5.22;;;;;;;16.20;59.07;98416.53;1776886;80;21198;-82
2022/04/08 09:35:16;;;;;;;15.90;4.60;;;;;;;16.39;56.46;98425.29;1778329;80;21195;-83
2022/04/08 09:38:40;;;;;;;10.93;4.15;;;;;;;16.50;57.26;98419.32;1774268;80;21214;-82
2022/04/08 09:41:55;;;;;;;8.50;4.35;;;;;;;16.65;55.43;98417.25;1779498;80;21192;-82
2022/04/08 09:45:17;;;;;;;16.05;5.15;;;;;;;16.63;55.05;98428.56;1748699;80;21173;-83
2022/04/08 09:48:36;;;;;;;10.55;4.45;;;;;;;16.61;55.77;98432.15;1724106;80;21218;-82
2022/04/08 09:51:59;;;;;;;11.05;4.70;;;;;;;16.66;55.46;98429.44;1777874;80;21200;-82
2022/04/08 09:55:26;;;;;;;20.02;4.35;;;;;;;16.70;54.91;98421.44;1769632;80;21153;-82
2022/04/08 09:59:38;;;;;;;15.60;4.72;;;;;;;16.58;55.03;98432.11;1776795;80;21177;-82
2022/04/08 10:02:58;;;;;;;14.03;4.35;;;;;;;16.63;56.38;98448.44;1778476;80;21202;-82
2022/04/08 10:06:21;;;;;;;11.60;4.33;;;;;;;16.64;54.97;98457.83;1762588;80;21185;-83
2022/04/08 10:09:34;;;;;;;17.30;4.40;;;;;;;16.63;55.68;98454.79;1766621;80;21163;-82
2022/04/08 10:13:18;;;;;;;18.50;4.78;;;;;;;16.64;55.19;98457.00;1733946;80;21237;-82
2022/04/08 10:16:32;;;;;;;10.18;3.72;;;;;;;16.58;55.19;98456.12;1762713;80;21705;-82
2022/04/08 10:19:45;;;;;;;10.00;3.70;;;;;;;16.57;55.57;98456.67;1767327;80;21169;-82
2022/04/08 10:23:04;;;;;;;11.73;4.30;;;;;;;16.47;54.52;98457.95;1759003;80;21196;-82
2022/04/08 10:26:34;;;;;;;12.33;4.17;;;;;;;16.33;54.59;98455.30;1737036;80;21854;-82
2022/04/08 10:29:48;;;;;;;12.23;3.92;;;;;;;16.20;54.46;98462.59;1761290;79;21200;-82
2022/04/08 10:33:11;;;;;;;15.83;4.53;;;;;;;16.04;55.07;98469.83;1761816;80;21161;-82
2022/04/08 10:36:25;;;;;;;11.63;4.70;;;;;;;15.88;55.74;98470.18;1759622;80;21180;-82
2022/04/08 10:40:08;;;;;;;12.43;4.30;;;;;;;15.76;56.18;98472.20;1775982;80;21188;-82
2022/04/08 10:43:26;;;;;;;16.00;4.13;;;;;;;15.65;55.91;98467.66;1753564;82;21284;-82
2022/04/08 10:46:50;;;;;;;10.90;4.70;;;;;;;15.52;57.06;98475.69;1778485;80;21883;-82
2022/04/08 10:50:13;;;;;;;10.15;4.50;;;;;;;15.49;57.37;98473.46;1782415;79;21715;-83
2022/04/08 10:53:40;;;;;;;11.22;3.10;;;;;;;15.52;57.74;98482.03;1781416;80;21485;-82
2022/04/08 10:56:53;;;;;;;8.05;3.20;;;;;;;15.58;58.13;98476.91;1780191;80;21177;-81
2022/04/08 11:00:15;;;;;;;12.58;3.50;;;;;;;15.53;57.74;98479.59;1765282;80;21203;-82
2022/04/08 11:04:08;;;;;;;11.75;3.95;;;;;;;15.43;58.49;98478.06;1776872;80;21252;-83
2022/04/08 11:07:31;;;;;;;11.88;3.67;;;;;;;15.27;58.94;98478.35;1772935;80;21116;-82
2022/04/08 11:10:49;;;;;;;11.15;4.00;;;;;;;15.09;59.47;98479.44;1728881;82;21476;-82
2022/04/08 11:14:12;;;;;;;16.23;4.05;;;;;;;15.04;60.37;98487.61;1753549;80;21179;-82
2022/04/08 11:17:32;;;;;;;14.65;4.17;;;;;;;15.00;61.14;98489.19;1775077;80;21165;-82
2022/04/08 11:20:55;;;;;;;9.33;3.27;;;;;;;15.00;61.42;98487.81;1763908;80;21173;-82
2022/04/08 11:24:16;;;;;;;13.20;3.85;;;;;;;14.95;61.82;98497.91;1783815;80;21218;-82
2022/04/08 11:27:30;;;;;;;11.95;4.20;;;;;;;14.82;63.12;98493.58;1784736;80;21237;-82
2022/04/08 11:30:44;;;;;;;10.55;4.05;;;;;;;14.69;65.16;98489.75;1782449;80;21183;-81
2022/04/08 11:33:49;;;;;;;12.88;3.80;;;;;;;14.57;66.29;98490.63;1760136;80;21303;-82
2022/04/08 11:36:57;;;;;;;9.43;3.35;;;;;;;14.39;67.91;98492.70;1769769;80;21166;-82
2022/04/08 11:40:15;;;;;;;15.80;4.25;;;;;;;14.23;68.65;98496.53;1772477;80;21827;-82
2022/04/08 11:43:32;;;;;;;11.05;4.03;;;;;;;14.09;69.90;98505.30;1769520;80;21158;-81
2022/04/08 11:46:36;;;;;;;16.17;4.90;;;;;;;13.95;70.98;98512.44;1784433;80;21209;-81
2022/04/08 11:49:27;;;;;;;14.87;5.40;;;;;;;13.83;72.60;98512.98;1744676;80;21740;-81
2022/04/08 11:52:28;;;;;;;13.83;4.60;;;;;;;13.79;74.14;98513.19;1770594;80;21234;-81
2022/04/08 11:55:47;;;;;;;17.42;4.53;;;;;;;13.73;75.22;98514.97;1753300;80;21245;-81
2022/04/08 11:59:20;;;;;;;12.63;5.47;;;;;;;13.72;75.39;98512.47;1718518;83;21331;-81
2022/04/08 12:02:36;;;;;;;16.57;4.25;;;;;;;13.72;75.59;98512.47;1720103;83;21216;-80
2022/04/08 12:06:02;;;;;;;13.75;4.92;;;;;;;13.73;75.59;98511.38;1718279;83;21376;-81
2022/04/08 12:09:20;;;;;;;16.57;5.17;;;;;;;13.75;76.08;98514.75;1719643;83;21268;-81
2022/04/08 12:12:24;;;;;;;19.00;5.78;;;;;;;13.81;76.23;98517.89;1719819;83;21240;-81
2022/04/08 12:15:33;;;;;;;19.37;4.95;;;;;;;13.87;76.49;98520.21;1719158;83;21795;-80
2022/04/08 12:18:42;;;;;;;13.62;4.67;;;;;;;13.91;76.29;98514.53;1719405;83;21255;-82
2022/04/08 12:22:02;;;;;;;14.78;5.03;;;;;;;13.89;75.78;98510.66;1718099;83;21231;-82
2022/04/08 12:29:53;;;;;;;18.52;6.05;;;;;;;13.84;75.53;98507.80;1718738;83;21794;-81
2022/04/08 12:33:08;;;;;;;16.07;6.17;;;;;;;13.73;74.83;98501.77;1706747;83;21240;-81
2022/04/08 12:36:31;;;;;;;17.73;6.33;;;;;;;13.65;75.55;98500.24;1859521;76;22225;-81
2022/04/08 12:39:55;;;;;;;19.95;6.03;;;;;;;13.55;76.09;98498.09;1815574;77;21777;-81
2022/04/08 12:43:06;;;;;;;23.80;6.35;;;;;;;13.48;77.11;98497.38;1776669;80;21804;-81
2022/04/08 12:46:20;;;;;;;17.50;6.30;;;;;;;13.44;78.09;98494.80;1776824;79;21172;-81
2022/04/08 12:49:36;;;;;;;20.68;6.35;;;;;;;13.46;78.80;98491.30;1749292;82;21818;-81
2022/04/08 12:52:54;;;;;;;11.93;5.28;;;;;;;13.54;79.42;98490.91;1719361;83;21232;-81
2022/04/08 12:56:01;;;;;;;15.80;5.95;;;;;;;13.66;80.03;98488.17;1753085;82;21225;-81
2022/04/08 12:59:10;;;;;;;21.27;6.20;;;;;;;13.71;80.39;98485.53;1756959;81;21204;-81
2022/04/08 13:02:23;;;;;;;21.15;5.75;;;;;;;13.78;80.78;98488.14;1756621;81;21195;-81
2022/04/08 13:05:53;;;;;;;11.63;5.60;;;;;;;13.85;79.63;98490.23;1725851;81;21275;-81
2022/04/08 13:09:16;;;;;;;16.00;6.10;;;;;;;13.87;78.67;98490.81;1726292;82;21557;-81
2022/04/08 13:12:29;;;;;;;14.28;5.87;;;;;;;13.84;78.35;98491.86;1782754;80;21143;-81
2022/04/08 13:15:53;;;;;;;14.75;6.42;;;;;;;13.85;77.72;98497.64;1740944;82;21234;-81
2022/04/08 13:19:24;;;;;;;13.85;6.60;;;;;;;13.79;76.78;98490.66;1761103;80;21189;-81
2022/04/08 13:22:53;;;;;;;20.40;6.95;;;;;;;13.69;75.93;98488.21;1751979;82;21253;-81
2022/04/08 13:26:07;;;;;;;16.25;6.42;;;;;;;13.61;75.39;98485.31;1767659;81;21224;-81
2022/04/08 13:29:32;;;;;;;15.03;6.70;;;;;;;13.54;74.99;98484.05;1737482;81;21247;-81
2022/04/08 13:32:53;;;;;;;16.10;6.40;;;;;;;13.44;75.26;98482.98;1742354;81;21168;-81
2022/04/08 13:36:19;;;;;;;11.12;5.05;;;;;;;13.33;75.09;98480.55;1714156;82;21306;-81
2022/04/08 13:39:43;;;;;;;11.45;4.87;;;;;;;13.21;74.87;98486.52;1699136;84;21698;-81
2022/04/08 13:43:16;;;;;;;13.85;4.80;;;;;;;13.07;75.37;98479.58;1704077;83;21759;-81
2022/04/08 13:46:35;;;;;;;8.60;4.58;;;;;;;12.93;76.19;98479.80;1708955;83;21787;-81
2022/04/08 13:49:49;;;;;;;20.45;5.12;;;;;;;12.82;76.60;98483.36;1689427;85;21208;-81
2022/04/08 13:53:03;;;;;;;22.02;5.60;;;;;;;12.74;76.70;98491.92;1692853;83;21205;-81
2022/04/08 13:56:15;;;;;;;15.30;5.20;;;;;;;12.65;77.30;98489.21;1636632;85;21229;-81
2022/04/08 13:59:46;;;;;;;9.53;4.00;;;;;;;12.53;77.32;98490.02;1692821;83;21240;-81
2022/04/08 14:03:03;;;;;;;9.58;4.33;;;;;;;12.44;77.96;98491.41;1697660;84;21394;-81
2022/04/08 14:06:24;;;;;;;8.95;3.75;;;;;;;12.36;78.19;98493.10;1705164;84;21185;-81
2022/04/08 14:09:41;;;;;;;10.68;4.45;;;;;;;12.26;78.06;98492.83;1703843;83;21208;-81
2022/04/08 14:13:06;;;;;;;13.48;5.03;;;;;;;12.12;78.20;98485.84;1707450;83;21735;-81
2022/04/08 14:16:36;;;;;;;10.35;4.50;;;;;;;12.02;78.54;98491.87;1706294;83;21291;-81
2022/04/08 14:19:52;;;;;;;12.88;3.98;;;;;;;11.89;78.50;98492.86;1732930;83;21196;-81
2022/04/08 14:23:06;;;;;;;11.28;4.28;;;;;;;11.77;78.95;98488.66;1725638;83;21280;-80
2022/04/08 14:26:28;;;;;;;12.58;4.40;;;;;;;11.66;80.11;98492.67;1696394;83;21237;-81
2022/04/08 14:29:43;;;;;;;11.50;4.40;;;;;;;11.54;81.12;98488.49;1699862;83;21248;-81
2022/04/08 14:33:07;;;;;;;15.08;4.40;;;;;;;11.43;82.42;98479.64;1686586;84;21198;-81
2022/04/08 14:36:37;;;;;;;8.55;3.72;;;;;;;11.28;82.64;98469.59;1712939;80;21256;-81
2022/04/08 14:40:09;;;;;;;15.72;4.28;;;;;;;11.09;83.76;98472.28;1716070;82;21787;-81
2022/04/08 14:43:44;;;;;;;17.42;4.35;;;;;;;10.98;84.27;98488.07;1718183;83;21233;-81
2022/04/08 14:47:07;;;;;;;14.95;4.25;;;;;;;10.90;84.74;98500.65;1699562;83;21209;-81
2022/04/08 14:50:02;;;;;;;12.28;4.47;;;;;;;10.86;84.93;98504.88;1724532;83;21372;-81
2022/04/08 14:53:21;;;;;;;14.40;5.05;;;;;;;10.84;85.14;98501.02;1734850;83;21774;-81
2022/04/08 14:56:38;;;;;;;17.65;4.58;;;;;;;10.81;85.64;98500.61;1693467;83;21217;-80
2022/04/08 14:59:51;;;;;;;14.25;4.58;;;;;;;10.75;86.26;98498.23;1705651;83;21257;-80